Time;durP1;ratioP1;P1;durP2;ratioP2;P2;SDS_P1;SDS_P2;PMS_P1;PMS_P2;Temp;Humidity;BMP_temperature;BMP_pressure;BME280_temperature;BME280_humidity;BME280_pressure;Samples;Min_cycle;Max_cycle;Signal;HPM_P1;HPM_P2
2023/05/02 00:01:38;;;;;;;2.08;0.85;;;;;;;;;;21001691;28;20052;-67
2023/05/02 00:11:39;;;;;;;1.65;0.80;;;;;;;;;;21000932;28;20044;-67
2023/05/02 00:21:41;;;;;;;1.67;0.75;;;;;;;;;;20998701;28;20182;-67
2023/05/02 00:31:43;;;;;;;1.63;0.80;;;;;;;;;;20998775;28;20052;-67
2023/05/02 00:41:45;;;;;;;2.63;0.90;;;;;;;;;;20998545;28;20123;-67
2023/05/02 00:51:47;;;;;;;3.90;0.90;;;;;;;;;;20998228;28;20052;-67
2023/05/02 01:02:04;;;;;;;1.92;0.73;;;;;;;;;;20996139;28;20051;-67
2023/05/02 01:12:15;;;;;;;3.37;0.90;;;;;;;;;;20996179;28;20057;-67
2023/05/02 01:22:18;;;;;;;4.05;0.90;;;;;;;;;;20996410;28;20538;-67
2023/05/02 01:32:22;;;;;;;1.80;0.95;;;;;;;;;;20995457;28;20049;-67
2023/05/02 01:42:25;;;;;;;1.80;0.80;;;;;;;;;;20996857;28;20059;-67
2023/05/02 01:52:27;;;;;;;0.85;0.60;;;;;;;;;;21012483;28;20145;-68
2023/05/02 02:02:29;;;;;;;1.75;0.70;;;;;;;;;;21011016;28;20045;-68
2023/05/02 02:12:35;;;;;;;1.45;0.82;;;;;;;;;;21010587;28;20076;-67
2023/05/02 02:22:38;;;;;;;3.25;0.75;;;;;;;;;;21008363;28;20094;-67
2023/05/02 02:32:40;;;;;;;1.77;0.47;;;;;;;;;;21007024;28;20045;-66
2023/05/02 02:42:44;;;;;;;1.05;0.70;;;;;;;;;;21006299;28;20075;-68
2023/05/02 02:52:52;;;;;;;2.35;0.77;;;;;;;;;;21006833;28;20048;-67
2023/05/02 03:02:55;;;;;;;2.25;0.77;;;;;;;;;;21005290;28;20106;-68
2023/05/02 03:12:57;;;;;;;1.13;0.63;;;;;;;;;;21004916;28;20056;-68
2023/05/02 03:22:59;;;;;;;1.60;0.50;;;;;;;;;;21004586;28;20083;-67
2023/05/02 03:33:03;;;;;;;1.17;0.70;;;;;;;;;;21004608;28;20052;-67
2023/05/02 03:43:05;;;;;;;2.22;1.05;;;;;;;;;;21002427;28;20044;-67
2023/05/02 03:53:08;;;;;;;1.40;0.80;;;;;;;;;;21002872;28;20404;-68
2023/05/02 04:03:10;;;;;;;1.95;1.13;;;;;;;;;;21001675;28;20045;-67
2023/05/02 04:13:12;;;;;;;2.47;0.60;;;;;;;;;;21000339;28;20482;-67
2023/05/02 04:23:14;;;;;;;2.92;0.70;;;;;;;;;;20999766;28;20079;-67
2023/05/02 04:33:17;;;;;;;1.67;0.70;;;;;;;;;;20999450;28;20064;-67
2023/05/02 04:43:19;;;;;;;1.00;0.60;;;;;;;;;;20998986;28;20049;-68
2023/05/02 04:53:22;;;;;;;2.50;0.57;;;;;;;;;;20997208;28;20056;-67
2023/05/02 05:03:24;;;;;;;2.33;0.80;;;;;;;;;;20997615;28;20098;-67
2023/05/02 05:13:27;;;;;;;2.15;0.70;;;;;;;;;;20997134;28;20044;-68
2023/05/02 05:23:29;;;;;;;1.40;0.70;;;;;;;;;;20994853;28;20056;-68
2023/05/02 05:33:30;;;;;;;1.88;0.80;;;;;;;;;;20996274;28;20060;-68
2023/05/02 05:43:33;;;;;;;7.90;1.73;;;;;;;;;;20995827;28;20127;-68
2023/05/02 05:53:35;;;;;;;1.58;0.80;;;;;;;;;;20995578;28;20509;-67
2023/05/02 06:03:36;;;;;;;2.95;0.93;;;;;;;;;;20995361;28;20402;-62
2023/05/02 06:13:38;;;;;;;2.40;0.75;;;;;;;;;;20992460;28;20110;-65
2023/05/02 06:23:40;;;;;;;0.85;0.60;;;;;;;;;;20992237;28;20048;-64
2023/05/02 06:33:42;;;;;;;3.47;0.90;;;;;;;;;;21000840;28;20120;-64
2023/05/02 06:43:44;;;;;;;3.88;0.80;;;;;;;;;;21007015;28;20098;-65
2023/05/02 06:53:45;;;;;;;2.70;0.88;;;;;;;;;;21007015;28;20516;-64
2023/05/02 07:03:47;;;;;;;2.50;1.05;;;;;;;;;;21005117;28;20170;-65
2023/05/02 07:13:49;;;;;;;2.63;1.10;;;;;;;;;;21005770;28;20048;-63
2023/05/02 07:23:51;;;;;;;1.45;0.60;;;;;;;;;;21005230;28;20057;-68
2023/05/02 07:33:53;;;;;;;1.92;0.60;;;;;;;;;;21004135;28;20087;-65
2023/05/02 07:43:56;;;;;;;15.80;10.57;;;;;;;;;;21002903;28;20117;-65
2023/05/02 07:53:58;;;;;;;1.13;0.55;;;;;;;;;;21002137;28;20044;-65
2023/05/02 08:04:00;;;;;;;3.60;0.88;;;;;;;;;;21000132;28;20049;-65
2023/05/02 08:14:01;;;;;;;3.42;1.23;;;;;;;;;;20998713;28;20045;-67
2023/05/02 08:24:03;;;;;;;3.20;0.60;;;;;;;;;;20998366;28;20074;-74
2023/05/02 08:34:05;;;;;;;1.30;0.68;;;;;;;;;;20997555;28;20058;-66
2023/05/02 08:44:07;;;;;;;1.33;0.40;;;;;;;;;;20995263;28;20043;-75
2023/05/02 08:54:10;;;;;;;1.55;0.60;;;;;;;;;;20994991;28;20083;-66
2023/05/02 09:04:12;;;;;;;1.60;0.73;;;;;;;;;;20996771;28;20514;-71
2023/05/02 09:14:15;;;;;;;3.53;0.98;;;;;;;;;;20996619;28;20051;-69
2023/05/02 09:24:18;;;;;;;1.65;1.13;;;;;;;;;;20983754;28;20056;-73
2023/05/02 09:34:20;;;;;;;0.95;0.50;;;;;;;;;;20965861;28;20443;-65
2023/05/02 09:44:25;;;;;;;2.88;0.88;;;;;;;;;;20981738;28;21477;-65
2023/05/02 09:54:35;;;;;;;1.95;0.70;;;;;;;;;;20990636;28;20056;-66
2023/05/02 10:04:38;;;;;;;2.00;0.73;;;;;;;;;;20990290;28;20086;-61
2023/05/02 10:14:40;;;;;;;1.20;0.55;;;;;;;;;;21005296;28;20047;-72
2023/05/02 10:24:42;;;;;;;2.55;0.63;;;;;;;;;;20973260;28;20141;-67
2023/05/02 10:34:45;;;;;;;1.35;0.57;;;;;;;;;;21006079;28;20054;-68
2023/05/02 10:44:49;;;;;;;1.90;0.77;;;;;;;;;;21007893;28;20044;-69
2023/05/02 10:54:51;;;;;;;1.95;0.68;;;;;;;;;;20992984;28;20165;-67
2023/05/02 11:05:00;;;;;;;2.28;0.98;;;;;;;;;;20951700;28;20055;-68
2023/05/02 11:15:02;;;;;;;2.55;0.68;;;;;;;;;;20997079;28;20547;-63
2023/05/02 11:25:04;;;;;;;11.18;6.00;;;;;;;;;;20920643;28;20053;-62
2023/05/02 11:35:06;;;;;;;1.48;0.90;;;;;;;;;;20912955;28;20056;-63
2023/05/02 11:45:08;;;;;;;1.40;0.70;;;;;;;;;;20912874;28;20044;-63
2023/05/02 11:55:11;;;;;;;1.08;0.63;;;;;;;;;;20918118;28;20057;-63
2023/05/02 12:05:14;;;;;;;1.38;1.00;;;;;;;;;;20918509;28;20482;-64
2023/05/02 12:15:16;;;;;;;1.08;0.68;;;;;;;;;;20917551;28;20055;-62
2023/05/02 12:25:18;;;;;;;2.00;0.70;;;;;;;;;;20917929;28;20057;-62
2023/05/02 12:35:22;;;;;;;5.43;3.35;;;;;;;;;;20913673;28;20074;-65
2023/05/02 12:45:27;;;;;;;2.20;1.10;;;;;;;;;;20913345;28;20041;-64
2023/05/02 12:55:31;;;;;;;0.88;0.60;;;;;;;;;;20913628;28;20045;-66
2023/05/02 13:05:33;;;;;;;1.35;0.70;;;;;;;;;;20914302;28;20053;-66
2023/05/02 13:15:35;;;;;;;4.18;1.00;;;;;;;;;;20913590;28;20083;-66
2023/05/02 13:25:36;;;;;;;1.33;0.70;;;;;;;;;;20914031;28;20057;-65
2023/05/02 13:35:38;;;;;;;3.47;0.60;;;;;;;;;;20913123;28;20399;-65
2023/05/02 13:45:40;;;;;;;4.20;1.02;;;;;;;;;;20926666;28;20045;-66
2023/05/02 13:55:42;;;;;;;3.60;0.80;;;;;;;;;;20929750;28;20102;-66
2023/05/02 14:05:44;;;;;;;2.67;1.10;;;;;;;;;;20927728;28;20048;-65
2023/05/02 14:15:46;;;;;;;4.32;1.02;;;;;;;;;;20926529;28;20052;-66
2023/05/02 14:25:48;;;;;;;2.17;0.88;;;;;;;;;;20925879;28;20410;-65
2023/05/02 14:35:49;;;;;;;5.07;1.33;;;;;;;;;;20924758;28;20053;-66
2023/05/02 14:45:51;;;;;;;3.45;1.13;;;;;;;;;;20923967;28;20041;-65
2023/05/02 14:55:53;;;;;;;1.92;0.45;;;;;;;;;;20923234;28;20049;-65
2023/05/02 15:05:55;;;;;;;1.65;0.80;;;;;;;;;;20922700;28;20132;-65
2023/05/02 15:15:57;;;;;;;3.28;1.00;;;;;;;;;;20921200;28;20053;-64
2023/05/02 15:25:59;;;;;;;1.75;0.57;;;;;;;;;;20919260;28;20052;-65
2023/05/02 15:36:01;;;;;;;2.38;0.70;;;;;;;;;;20920126;28;20049;-65
2023/05/02 15:46:03;;;;;;;1.33;0.73;;;;;;;;;;20920289;28;20060;-65
2023/05/02 15:56:08;;;;;;;1.65;0.85;;;;;;;;;;20917212;28;20052;-63
2023/05/02 16:06:10;;;;;;;4.50;2.63;;;;;;;;;;20916520;28;20049;-62
2023/05/02 16:16:12;;;;;;;2.63;0.90;;;;;;;;;;20916286;28;20048;-63
2023/05/02 16:26:14;;;;;;;7.47;4.80;;;;;;;;;;20914900;28;20053;-62
2023/05/02 16:36:16;;;;;;;3.35;2.13;;;;;;;;;;20916048;28;20360;-63
2023/05/02 16:46:18;;;;;;;1.73;0.75;;;;;;;;;;20915750;28;20488;-65
2023/05/02 16:56:20;;;;;;;1.77;0.80;;;;;;;;;;20913805;28;20052;-65
2023/05/02 17:06:22;;;;;;;2.10;0.88;;;;;;;;;;20913943;28;20504;-66
2023/05/02 17:16:24;;;;;;;1.70;0.80;;;;;;;;;;20913253;28;20060;-65
2023/05/02 17:26:25;;;;;;;3.80;0.98;;;;;;;;;;20911519;28;20053;-65
2023/05/02 17:36:29;;;;;;;5.82;1.25;;;;;;;;;;20912482;28;20118;-65
2023/05/02 17:46:31;;;;;;;2.85;0.68;;;;;;;;;;20910752;28;20180;-66
2023/05/02 17:56:33;;;;;;;4.05;1.50;;;;;;;;;;20911698;28;20414;-66
2023/05/02 18:06:35;;;;;;;4.22;2.30;;;;;;;;;;20910001;28;20098;-66
2023/05/02 18:16:37;;;;;;;4.22;1.40;;;;;;;;;;20910232;28;20421;-66
2023/05/02 18:26:39;;;;;;;4.65;1.88;;;;;;;;;;20912582;28;20137;-65
2023/05/02 18:36:43;;;;;;;4.60;2.10;;;;;;;;;;20923113;28;20064;-65
2023/05/02 18:46:45;;;;;;;4.38;1.85;;;;;;;;;;20923628;28;20505;-65
2023/05/02 18:56:48;;;;;;;8.45;2.10;;;;;;;;;;20922783;28;20056;-66
2023/05/02 19:06:49;;;;;;;7.25;3.17;;;;;;;;;;20923196;28;20052;-67
2023/05/02 19:16:51;;;;;;;3.53;2.33;;;;;;;;;;20922824;28;20041;-67
2023/05/02 19:26:53;;;;;;;3.92;1.75;;;;;;;;;;20922270;28;20486;-65
2023/05/02 19:36:55;;;;;;;7.07;3.05;;;;;;;;;;20919592;28;20052;-66
2023/05/02 19:46:57;;;;;;;6.40;3.58;;;;;;;;;;20920262;28;20054;-65
2023/05/02 19:56:59;;;;;;;12.63;4.82;;;;;;;;;;20919716;28;20076;-66
2023/05/02 20:07:01;;;;;;;13.43;4.28;;;;;;;;;;20919401;28;20398;-64
2023/05/02 20:17:03;;;;;;;12.18;6.22;;;;;;;;;;20917156;28;20064;-66
2023/05/02 20:27:05;;;;;;;7.40;4.88;;;;;;;;;;20916603;28;20056;-65
2023/05/02 20:37:07;;;;;;;11.50;4.88;;;;;;;;;;20914870;28;20053;-65
2023/05/02 20:47:09;;;;;;;10.63;5.25;;;;;;;;;;20915052;28;20458;-65
2023/05/02 20:57:14;;;;;;;9.75;5.15;;;;;;;;;;20915185;28;20049;-65
2023/05/02 21:07:16;;;;;;;10.15;4.68;;;;;;;;;;20912699;28;20178;-65
2023/05/02 21:17:18;;;;;;;9.52;4.22;;;;;;;;;;20913706;28;20597;-65
2023/05/02 21:27:21;;;;;;;4.93;2.67;;;;;;;;;;20913598;28;20057;-66
2023/05/02 21:37:23;;;;;;;5.60;2.35;;;;;;;;;;20911137;28;20060;-66
2023/05/02 21:47:25;;;;;;;6.43;2.58;;;;;;;;;;20911862;28;20049;-66
2023/05/02 21:57:27;;;;;;;4.65;2.20;;;;;;;;;;20912801;28;20052;-66
2023/05/02 22:07:29;;;;;;;7.18;1.80;;;;;;;;;;20928654;28;20049;-67
2023/05/02 22:17:31;;;;;;;4.18;1.85;;;;;;;;;;20928577;28;20099;-67
2023/05/02 22:27:33;;;;;;;4.88;1.20;;;;;;;;;;20926544;28;20061;-65
2023/05/02 22:37:35;;;;;;;3.53;1.52;;;;;;;;;;20926950;28;20108;-65
2023/05/02 22:47:36;;;;;;;5.28;1.42;;;;;;;;;;20925059;28;20044;-65
2023/05/02 22:57:39;;;;;;;2.55;1.15;;;;;;;;;;20925497;28;20516;-65
2023/05/02 23:07:41;;;;;;;5.50;1.67;;;;;;;;;;20924855;28;20049;-65
2023/05/02 23:17:42;;;;;;;5.07;1.67;;;;;;;;;;20923658;28;20049;-66
2023/05/02 23:27:44;;;;;;;5.78;1.40;;;;;;;;;;20921600;28;20057;-64
2023/05/02 23:37:46;;;;;;;3.67;1.30;;;;;;;;;;20922104;28;20053;-65
2023/05/02 23:47:48;;;;;;;2.50;1.42;;;;;;;;;;20920272;28;20056;-65
2023/05/02 23:57:50;;;;;;;3.22;1.40;;;;;;;;;;20919473;28;20053;-65
